Time;durP1;ratioP1;P1;durP2;ratioP2;P2;SDS_P1;SDS_P2;PMS_P1;PMS_P2;Temp;Humidity;BMP_temperature;BMP_pressure;BME280_temperature;BME280_humidity;BME280_pressure;Samples;Min_cycle;Max_cycle;Signal;HPM_P1;HPM_P2
2022/10/28 00:00:24;;;;;;;20.60;4.68;;;;;;;14.23;100.00;99629.97;4951194;28;20516;-43
2022/10/28 00:02:51;;;;;;;35.20;5.57;;;;;;;14.24;100.00;99623.22;4946588;28;20063;-43
2022/10/28 00:05:18;;;;;;;22.05;4.35;;;;;;;14.25;100.00;99613.66;4946016;29;20043;-43
2022/10/28 00:07:48;;;;;;;21.88;4.80;;;;;;;14.25;100.00;99617.22;4950747;28;20036;-51
2022/10/28 00:10:15;;;;;;;32.38;5.65;;;;;;;14.26;100.00;99618.03;4949658;28;20809;-43
2022/10/28 00:12:41;;;;;;;34.00;6.70;;;;;;;14.27;100.00;99612.06;4948907;28;20047;-43
2022/10/28 00:15:08;;;;;;;28.13;5.22;;;;;;;14.27;100.00;99608.50;4950050;28;20051;-43
2022/10/28 00:17:35;;;;;;;31.88;6.78;;;;;;;14.25;100.00;99599.72;4949937;28;20064;-42
2022/10/28 00:20:02;;;;;;;42.28;7.55;;;;;;;14.23;100.00;99602.13;4945692;28;20043;-43
2022/10/28 00:22:29;;;;;;;36.70;8.45;;;;;;;14.21;100.00;99593.38;4951546;29;20121;-45
2022/10/28 00:24:55;;;;;;;38.38;7.35;;;;;;;14.18;100.00;99591.38;4951475;28;20498;-44
2022/10/28 00:27:22;;;;;;;29.77;5.85;;;;;;;14.15;100.00;99590.19;4951357;28;20065;-43
2022/10/28 00:29:49;;;;;;;26.58;5.10;;;;;;;14.14;100.00;99594.16;4951078;28;20047;-42
2022/10/28 00:32:15;;;;;;;29.23;5.07;;;;;;;14.14;100.00;99583.03;4951139;28;20058;-43
2022/10/28 00:34:42;;;;;;;27.23;5.55;;;;;;;14.15;100.00;99578.25;4950687;28;20059;-46
2022/10/28 00:37:08;;;;;;;31.90;6.30;;;;;;;14.15;100.00;99575.47;4944162;28;20051;-43
2022/10/28 00:39:35;;;;;;;41.78;7.57;;;;;;;14.15;100.00;99572.69;4945598;29;20044;-42
2022/10/28 00:42:02;;;;;;;51.33;9.38;;;;;;;14.14;100.00;99565.56;4947938;29;20051;-45
2022/10/28 00:44:45;;;;;;;54.05;7.63;;;;;;;14.13;100.00;99575.09;4950303;28;20055;-43
2022/10/28 00:47:30;;;;;;;35.45;7.50;;;;;;;14.13;100.00;99566.72;4946636;28;20501;-42
2022/10/28 00:50:13;;;;;;;36.60;6.78;;;;;;;14.11;100.00;99542.06;4946326;28;20720;-44
2022/10/28 00:52:40;;;;;;;35.33;6.65;;;;;;;14.11;100.00;99538.50;4947007;29;20055;-43
2022/10/28 00:55:08;;;;;;;29.92;7.65;;;;;;;14.10;100.00;99526.56;4948682;28;20438;-43
2022/10/28 00:57:36;;;;;;;32.40;7.32;;;;;;;14.09;100.00;99524.16;4950217;28;20047;-44
2022/10/28 01:00:06;;;;;;;33.63;5.85;;;;;;;14.10;100.00;99509.06;4949141;28;20043;-45
2022/10/28 01:02:42;;;;;;;31.05;8.82;;;;;;;14.10;100.00;99500.72;4949928;28;20143;-45
2022/10/28 01:05:12;;;;;;;41.33;7.82;;;;;;;14.09;100.00;99488.00;4961325;28;20131;-46
2022/10/28 01:07:39;;;;;;;36.92;6.97;;;;;;;14.10;100.00;99487.59;4948944;28;20413;-50
2022/10/28 01:10:07;;;;;;;36.30;7.25;;;;;;;14.10;100.00;99465.34;4948253;28;20054;-44
2022/10/28 01:13:08;;;;;;;44.45;8.05;;;;;;;14.11;100.00;99441.09;4947664;29;20059;-50
2022/10/28 01:16:08;;;;;;;49.15;7.75;;;;;;;14.09;100.00;99446.25;4947957;29;20047;-43
2022/10/28 01:18:50;;;;;;;39.83;7.47;;;;;;;14.09;100.00;99446.25;4940154;29;20147;-44
2022/10/28 01:21:29;;;;;;;44.42;7.47;;;;;;;14.07;100.00;99432.75;4950305;28;20051;-47
2022/10/28 01:24:35;;;;;;;35.78;7.57;;;;;;;14.08;100.00;99422.41;4951202;28;20055;-51
2022/10/28 01:27:07;;;;;;;47.22;7.53;;;;;;;14.09;100.00;99418.41;4949898;28;20051;-43
2022/10/28 01:30:04;;;;;;;30.02;5.75;;;;;;;14.09;100.00;99429.53;4947197;28;20046;-43
2022/10/28 01:33:03;;;;;;;33.70;7.68;;;;;;;14.09;100.00;99401.72;4950973;28;20054;-42
2022/10/28 01:35:42;;;;;;;29.80;6.65;;;;;;;14.11;100.00;99388.22;4950721;28;20043;-43
2022/10/28 01:38:27;;;;;;;36.05;7.57;;;;;;;14.13;100.00;99383.84;4950907;28;20102;-44
2022/10/28 01:41:13;;;;;;;39.13;8.00;;;;;;;14.14;100.00;99367.94;4949007;28;20114;-42
2022/10/28 01:43:53;;;;;;;47.60;7.03;;;;;;;14.13;100.00;99366.34;4946715;28;20408;-44
2022/10/28 01:46:40;;;;;;;29.73;6.75;;;;;;;14.13;100.00;99364.34;4946965;28;20047;-44
2022/10/28 01:49:10;;;;;;;24.90;5.90;;;;;;;14.15;100.00;99369.50;4951148;29;20122;-48
2022/10/28 01:51:47;;;;;;;31.17;5.40;;;;;;;14.16;100.00;99354.41;4945913;28;20047;-44
2022/10/28 01:54:21;;;;;;;28.67;5.53;;;;;;;14.17;100.00;99333.69;4940860;29;20051;-42
2022/10/28 01:56:49;;;;;;;26.90;6.43;;;;;;;14.18;100.00;99332.53;4954204;28;20047;-42
2022/10/28 01:59:21;;;;;;;37.83;9.13;;;;;;;14.18;100.00;99310.25;4949091;28;20047;-45
2022/10/28 02:01:48;;;;;;;42.80;7.45;;;;;;;14.16;100.00;99316.22;4948183;28;20047;-43
2022/10/28 02:04:14;;;;;;;37.60;6.45;;;;;;;14.16;100.00;99307.09;4947041;28;20055;-42
2022/10/28 02:06:45;;;;;;;30.45;7.18;;;;;;;14.16;100.00;99291.19;4949978;28;20512;-42
2022/10/28 02:09:33;;;;;;;39.25;9.00;;;;;;;14.16;100.00;99284.81;4947800;28;20047;-43
2022/10/28 02:12:06;;;;;;;32.72;6.28;;;;;;;14.16;100.00;99274.47;4949235;29;20497;-42
2022/10/28 02:15:17;;;;;;;36.25;6.75;;;;;;;14.17;100.00;99239.88;4949312;28;20375;-43
2022/10/28 02:18:22;;;;;;;30.65;5.57;;;;;;;14.18;100.00;99243.44;4952010;28;20058;-43
2022/10/28 02:21:00;;;;;;;29.13;6.03;;;;;;;14.17;100.00;99231.50;4947848;28;20106;-43
2022/10/28 02:23:54;;;;;;;51.25;9.48;;;;;;;14.16;100.00;99215.22;4945663;29;20063;-43
2022/10/28 02:26:30;;;;;;;44.17;8.27;;;;;;;14.14;100.00;99198.16;4948555;28;20574;-41
2022/10/28 02:29:05;;;;;;;39.58;6.03;;;;;;;14.13;100.00;99185.44;4946654;28;20572;-42
2022/10/28 02:31:36;;;;;;;43.53;9.57;;;;;;;14.11;100.00;99171.13;4949220;28;20141;-42
2022/10/28 02:34:08;;;;;;;50.47;11.55;;;;;;;14.11;100.00;99151.66;4949930;28;20410;-42
2022/10/28 02:36:39;;;;;;;48.35;9.30;;;;;;;14.10;100.00;99141.72;4943180;28;20047;-41
2022/10/28 02:39:06;;;;;;;45.22;8.15;;;;;;;14.09;100.00;99140.91;4949856;28;20055;-42
2022/10/28 02:41:45;;;;;;;34.17;9.00;;;;;;;14.08;100.00;99119.06;4950308;28;20476;-41
2022/10/28 02:44:17;;;;;;;41.05;9.38;;;;;;;14.07;100.00;99100.78;4949472;29;20050;-45
2022/10/28 02:46:48;;;;;;;39.50;8.30;;;;;;;14.04;100.00;99086.50;4964484;28;20055;-41
2022/10/28 02:49:15;;;;;;;72.57;11.15;;;;;;;14.03;100.00;99070.97;4947537;28;20090;-46
2022/10/28 02:51:51;;;;;;;48.50;8.15;;;;;;;14.04;100.00;99078.13;4950145;28;20058;-42
2022/10/28 02:54:27;;;;;;;51.95;9.13;;;;;;;14.03;100.00;99075.78;4947969;29;20062;-41
2022/10/28 02:57:19;;;;;;;47.75;9.30;;;;;;;14.02;100.00;99074.97;4952159;28;20059;-45
2022/10/28 02:59:54;;;;;;;55.33;9.55;;;;;;;14.03;100.00;99076.53;4950129;28;20058;-43
2022/10/28 03:02:22;;;;;;;41.80;8.55;;;;;;;14.03;100.00;99070.97;4987934;23;20059;-42
2022/10/28 03:04:49;;;;;;;39.30;7.68;;;;;;;14.07;100.00;99059.03;4951365;28;20528;-42
2022/10/28 03:07:16;;;;;;;41.22;8.38;;;;;;;14.10;100.00;99041.53;4952972;28;20051;-47
2022/10/28 03:09:43;;;;;;;30.13;4.70;;;;;;;14.13;100.00;99015.66;4951643;28;20115;-41
2022/10/28 03:12:09;;;;;;;24.10;6.13;;;;;;;14.16;100.00;99000.94;4951248;28;20396;-41
2022/10/28 03:14:36;;;;;;;25.50;6.43;;;;;;;14.16;100.00;98978.66;4952073;28;20043;-41
2022/10/28 03:17:03;;;;;;;38.28;6.72;;;;;;;14.16;100.00;98973.09;4951521;28;20493;-47
2022/10/28 03:19:30;;;;;;;31.45;6.35;;;;;;;14.16;100.00;98970.31;4951310;29;20482;-42
2022/10/28 03:21:56;;;;;;;22.17;5.10;;;;;;;14.16;100.00;98962.75;4951561;28;20519;-42
2022/10/28 03:24:23;;;;;;;32.22;4.72;;;;;;;14.16;100.00;98950.84;4949665;28;20051;-43
2022/10/28 03:26:50;;;;;;;31.27;5.93;;;;;;;14.16;100.00;98917.44;4951859;28;20047;-42
2022/10/28 03:29:16;;;;;;;25.90;4.88;;;;;;;14.14;100.00;98909.47;4950467;28;20054;-47
2022/10/28 03:31:43;;;;;;;35.47;6.18;;;;;;;14.15;100.00;98899.16;4950887;28;20508;-42
2022/10/28 03:34:09;;;;;;;36.90;8.20;;;;;;;14.15;100.00;98902.72;4950809;28;20477;-42
2022/10/28 03:36:36;;;;;;;33.00;6.65;;;;;;;14.16;100.00;98895.19;4950492;28;20494;-43
2022/10/28 03:39:03;;;;;;;37.50;7.35;;;;;;;14.16;100.00;98881.25;4951755;28;20106;-43
2022/10/28 03:41:30;;;;;;;31.48;7.18;;;;;;;14.17;100.00;98880.03;4950853;28;20035;-41
2022/10/28 03:43:56;;;;;;;33.55;6.70;;;;;;;14.16;100.00;98872.91;4950907;28;20051;-42
2022/10/28 03:46:23;;;;;;;36.80;6.13;;;;;;;14.14;100.00;98873.31;4951529;28;20055;-42
2022/10/28 03:48:52;;;;;;;37.28;7.07;;;;;;;14.15;100.00;98846.28;4949812;28;20051;-47
2022/10/28 03:51:19;;;;;;;30.13;6.32;;;;;;;14.16;100.00;98836.72;4951089;28;20090;-42
2022/10/28 03:53:45;;;;;;;38.92;7.18;;;;;;;14.15;100.00;98847.06;4950382;28;20058;-43
2022/10/28 03:56:12;;;;;;;39.13;7.22;;;;;;;14.17;100.00;98846.63;4950635;29;20051;-41
2022/10/28 03:58:39;;;;;;;38.92;7.13;;;;;;;14.17;100.00;98824.38;4950097;28;20043;-47
2022/10/28 04:01:07;;;;;;;34.20;7.50;;;;;;;14.17;100.00;98818.81;4951765;28;20071;-42
2022/10/28 04:03:33;;;;;;;32.65;6.80;;;;;;;14.18;100.00;98798.13;4952144;28;20172;-42
2022/10/28 04:06:00;;;;;;;32.50;7.03;;;;;;;14.19;100.00;98780.25;4951907;28;20047;-42
2022/10/28 04:08:27;;;;;;;26.00;5.80;;;;;;;14.19;100.00;98763.53;4950856;28;20054;-43
2022/10/28 04:10:53;;;;;;;30.70;7.65;;;;;;;14.20;100.00;98767.88;4952283;28;20568;-42
2022/10/28 04:13:20;;;;;;;27.80;5.90;;;;;;;14.20;100.00;98785.38;4951858;28;20400;-42
2022/10/28 04:15:47;;;;;;;36.42;5.20;;;;;;;14.23;100.00;98783.75;4951617;28;20051;-47
2022/10/28 04:18:14;;;;;;;24.67;4.55;;;;;;;14.23;100.00;98784.56;4948967;28;20146;-42
2022/10/28 04:20:40;;;;;;;34.42;6.38;;;;;;;14.25;100.00;98806.38;4963585;28;20047;-44
2022/10/28 04:23:07;;;;;;;16.52;4.00;;;;;;;14.26;100.00;98794.84;4950169;29;20043;-44
2022/10/28 04:25:34;;;;;;;21.67;4.00;;;;;;;14.26;100.00;98805.97;4951010;28;20532;-43
2022/10/28 04:28:00;;;;;;;28.98;4.40;;;;;;;14.26;100.00;98791.28;4950195;28;20051;-42
2022/10/28 04:30:27;;;;;;;21.83;4.25;;;;;;;14.23;100.00;98784.56;4949250;28;20404;-42
2022/10/28 04:32:54;;;;;;;22.52;4.15;;;;;;;14.22;100.00;98794.09;4945621;29;20046;-42
2022/10/28 04:35:20;;;;;;;18.85;4.97;;;;;;;14.22;100.00;98832.25;4950614;28;20394;-44
2022/10/28 04:37:47;;;;;;;25.42;6.90;;;;;;;14.21;100.00;98914.19;4950261;28;20047;-43
2022/10/28 04:40:14;;;;;;;5.20;1.58;;;;;;;14.07;100.00;98958.84;4949617;28;20078;-43
2022/10/28 04:42:41;;;;;;;0.40;0.20;;;;;;;13.69;100.00;98983.00;4951488;28;20055;-44
2022/10/28 04:45:08;;;;;;;1.55;0.00;;;;;;;13.24;100.00;98984.91;4949496;28;20445;-43
2022/10/28 04:47:34;;;;;;;2.15;0.20;;;;;;;12.93;100.00;99063.59;4949811;29;20058;-42
2022/10/28 04:50:02;;;;;;;0.20;0.10;;;;;;;12.67;100.00;99082.31;4949686;28;20050;-43
2022/10/28 04:52:28;;;;;;;0.00;0.00;;;;;;;12.53;100.00;99112.84;4950177;28;20124;-41
2022/10/28 04:54:55;;;;;;;0.30;0.00;;;;;;;12.39;100.00;99148.94;4947539;28;20057;-50
2022/10/28 04:57:22;;;;;;;0.40;0.10;;;;;;;12.27;100.00;99154.88;4950663;28;20043;-42
2022/10/28 04:59:48;;;;;;;0.10;0.10;;;;;;;12.11;100.00;99182.22;4943831;28;20040;-42
2022/10/28 05:02:15;;;;;;;2.83;0.10;;;;;;;11.97;100.00;99162.75;4948262;29;20062;-41
2022/10/28 05:04:42;;;;;;;0.55;0.10;;;;;;;11.90;100.00;99184.94;4949034;28;20137;-44
2022/10/28 05:07:08;;;;;;;1.83;0.17;;;;;;;11.82;100.00;99181.34;4939351;28;20054;-42
2022/10/28 05:09:35;;;;;;;0.98;0.10;;;;;;;11.75;100.00;99205.47;4948177;29;20074;-44
2022/10/28 05:12:02;;;;;;;0.47;0.17;;;;;;;11.68;100.00;99230.34;4951354;28;20055;-42
2022/10/28 05:14:28;;;;;;;0.10;0.08;;;;;;;11.63;100.00;99243.41;4947569;28;20047;-43
2022/10/28 05:16:55;;;;;;;0.10;0.10;;;;;;;11.59;100.00;99242.63;4950886;28;20061;-42
2022/10/28 05:19:22;;;;;;;0.75;0.10;;;;;;;11.56;100.00;99260.03;4949766;28;20051;-42
2022/10/28 05:21:48;;;;;;;0.30;0.20;;;;;;;11.55;100.00;99274.25;4951054;28;20442;-41
2022/10/28 05:24:15;;;;;;;1.77;0.10;;;;;;;11.51;100.00;99292.84;4954441;28;20048;-42
2022/10/28 05:26:42;;;;;;;0.63;0.17;;;;;;;11.44;100.00;99301.09;4944697;28;20121;-43
2022/10/28 05:29:09;;;;;;;0.77;0.17;;;;;;;11.40;100.00;99317.72;4950601;28;20055;-45
2022/10/28 05:31:35;;;;;;;1.95;0.17;;;;;;;11.40;100.00;99339.09;4949853;28;20516;-43
2022/10/28 05:34:02;;;;;;;1.85;0.10;;;;;;;11.34;100.00;99360.81;4950189;28;20047;-43
2022/10/28 05:36:28;;;;;;;0.17;0.10;;;;;;;11.30;100.00;99378.59;4964091;28;20051;-42
2022/10/28 05:38:55;;;;;;;0.98;0.20;;;;;;;11.22;100.00;99377.75;4951002;28;20054;-52
2022/10/28 05:41:22;;;;;;;0.63;0.30;;;;;;;11.12;100.00;99378.41;4947680;28;20039;-43
2022/10/28 05:43:50;;;;;;;2.75;0.25;;;;;;;11.07;100.00;99389.84;4949803;28;20407;-43
2022/10/28 05:46:16;;;;;;;1.85;0.10;;;;;;;11.04;100.00;99400.91;4950494;28;20539;-42
2022/10/28 05:48:43;;;;;;;0.75;0.40;;;;;;;10.97;100.00;99401.63;4949249;28;20051;-43
2022/10/28 05:51:10;;;;;;;2.10;1.55;;;;;;;10.92;100.00;99418.59;4949686;28;20062;-45
2022/10/28 05:53:36;;;;;;;0.55;0.20;;;;;;;10.84;100.00;99425.22;4950057;28;20051;-47
2022/10/28 05:56:03;;;;;;;0.13;0.10;;;;;;;10.74;100.00;99439.75;4950551;28;20074;-43
2022/10/28 05:58:30;;;;;;;0.82;0.22;;;;;;;10.63;100.00;99447.13;4950371;28;20047;-43
2022/10/28 06:00:56;;;;;;;0.10;0.00;;;;;;;10.53;100.00;99461.63;4948539;28;20043;-45
2022/10/28 06:03:23;;;;;;;0.70;0.10;;;;;;;10.43;100.00;99471.41;4950821;28;20486;-42
2022/10/28 06:05:57;;;;;;;0.35;0.10;;;;;;;10.36;100.00;99483.16;4949431;28;20039;-42
2022/10/28 06:08:24;;;;;;;0.50;0.10;;;;;;;10.33;100.00;99492.19;4949433;28;20043;-43
2022/10/28 06:10:52;;;;;;;1.90;0.20;;;;;;;10.27;100.00;99507.50;4949338;28;20051;-42
2022/10/28 06:13:23;;;;;;;1.75;0.10;;;;;;;10.25;100.00;99523.69;4950066;28;20046;-42
2022/10/28 06:15:54;;;;;;;1.13;0.40;;;;;;;10.18;100.00;99528.31;4950314;28;20059;-42
2022/10/28 06:18:21;;;;;;;1.92;0.13;;;;;;;10.15;100.00;99540.91;4940275;28;20043;-48
2022/10/28 06:20:53;;;;;;;0.55;0.10;;;;;;;10.14;100.00;99539.31;4949700;29;20051;-42
2022/10/28 06:23:20;;;;;;;1.52;0.10;;;;;;;10.17;100.00;99549.63;4943277;29;20040;-42
2022/10/28 06:25:46;;;;;;;2.47;0.30;;;;;;;10.17;100.00;99566.22;4949575;28;20047;-42
2022/10/28 06:28:13;;;;;;;0.50;0.50;;;;;;;10.16;100.00;99563.84;4952822;28;20117;-45
2022/10/28 06:30:40;;;;;;;0.80;0.40;;;;;;;10.14;100.00;99572.50;4950290;28;20043;-42
2022/10/28 06:33:07;;;;;;;0.63;0.20;;;;;;;10.13;100.00;99575.66;4952147;28;20049;-50
2022/10/28 06:35:33;;;;;;;0.10;0.10;;;;;;;10.11;100.00;99580.72;4949434;28;20047;-42
2022/10/28 06:38:00;;;;;;;0.57;0.30;;;;;;;10.09;100.00;99586.63;4953137;28;20449;-49
2022/10/28 06:40:28;;;;;;;1.25;0.35;;;;;;;10.09;100.00;99591.34;4952662;28;20469;-43
2022/10/28 06:42:58;;;;;;;1.92;0.70;;;;;;;10.08;100.00;99615.44;4953495;29;20047;-42
2022/10/28 06:45:26;;;;;;;0.30;0.20;;;;;;;10.07;100.00;99635.16;4940202;29;20050;-43
2022/10/28 06:47:58;;;;;;;0.40;0.35;;;;;;;10.06;100.00;99637.13;4953423;28;20126;-43
2022/10/28 06:50:25;;;;;;;0.30;0.10;;;;;;;10.05;100.00;99641.06;4951312;28;20075;-46
2022/10/28 06:52:55;;;;;;;1.30;0.57;;;;;;;10.05;100.00;99641.06;4945006;29;20051;-44
2022/10/28 06:55:22;;;;;;;0.52;0.30;;;;;;;10.06;100.00;99653.72;4952671;28;20138;-45
2022/10/28 06:57:49;;;;;;;2.97;0.30;;;;;;;10.06;100.00;99653.72;4951650;28;20167;-51
2022/10/28 07:00:17;;;;;;;1.75;0.40;;;;;;;10.07;100.00;99668.34;4953799;28;20397;-43
2022/10/28 07:02:48;;;;;;;1.67;0.20;;;;;;;10.06;100.00;99675.84;4952931;28;20592;-43
2022/10/28 07:05:15;;;;;;;1.70;0.68;;;;;;;10.05;100.00;99673.47;4953117;29;20094;-43
2022/10/28 07:07:42;;;;;;;0.52;0.20;;;;;;;10.05;100.00;99687.28;4951708;28;20047;-43
2022/10/28 07:10:08;;;;;;;0.80;0.15;;;;;;;10.06;100.00;99692.44;4952662;28;20044;-48
2022/10/28 07:12:36;;;;;;;0.80;0.10;;;;;;;10.05;100.00;99707.44;4953227;29;20051;-43
2022/10/28 07:15:03;;;;;;;0.98;0.20;;;;;;;10.04;100.00;99722.41;4953100;28;20102;-43
2022/10/28 07:17:30;;;;;;;1.17;0.38;;;;;;;10.07;100.00;99723.66;4942514;28;20051;-44
2022/10/28 07:19:57;;;;;;;2.38;0.28;;;;;;;10.06;100.00;99735.91;4948356;28;20050;-43
2022/10/28 07:22:23;;;;;;;5.45;0.45;;;;;;;10.10;100.00;99753.34;4952695;28;20039;-42
2022/10/28 07:24:51;;;;;;;0.47;0.20;;;;;;;10.11;100.00;99766.03;4951594;28;20042;-43
2022/10/28 07:27:18;;;;;;;1.73;0.43;;;;;;;10.11;100.00;99782.63;4951942;28;20457;-43
2022/10/28 07:29:44;;;;;;;2.72;0.20;;;;;;;10.10;100.00;99787.34;4952742;28;20055;-49
2022/10/28 07:32:11;;;;;;;0.55;0.20;;;;;;;10.12;100.00;99796.09;4952077;29;20043;-43
2022/10/28 07:34:38;;;;;;;0.57;0.25;;;;;;;10.13;100.00;99808.78;4952574;28;20051;-45
2022/10/28 07:37:04;;;;;;;2.50;0.35;;;;;;;10.12;100.00;99812.69;4951432;28;20039;-43
2022/10/28 07:39:31;;;;;;;30.80;3.33;;;;;;;10.13;100.00;99819.03;4948365;28;20070;-44
2022/10/28 07:42:00;;;;;;;8.30;1.20;;;;;;;10.14;100.00;99832.47;4950928;28;20073;-49
2022/10/28 07:44:27;;;;;;;1.42;0.43;;;;;;;10.12;100.00;99845.88;4950730;28;20049;-44
2022/10/28 07:46:54;;;;;;;2.83;0.30;;;;;;;10.15;100.00;99845.16;4948187;28;20473;-52
2022/10/28 07:49:24;;;;;;;2.63;0.40;;;;;;;10.14;100.00;99854.59;4950517;29;20075;-43
2022/10/28 07:51:51;;;;;;;0.95;0.40;;;;;;;10.13;100.00;99872.38;4952025;29;20035;-44
2022/10/28 07:54:17;;;;;;;0.30;0.30;;;;;;;10.13;100.00;99866.84;4952309;28;20047;-43
2022/10/28 07:56:44;;;;;;;0.40;0.40;;;;;;;10.12;100.00;99868.00;4944890;29;20458;-43
2022/10/28 07:59:11;;;;;;;0.45;0.35;;;;;;;10.16;100.00;99868.09;4952091;29;20081;-43
2022/10/28 08:01:37;;;;;;;0.32;0.22;;;;;;;10.18;100.00;99887.88;4948744;28;20383;-43
2022/10/28 08:04:04;;;;;;;0.40;0.40;;;;;;;10.21;100.00;99887.97;4951738;28;20155;-43
2022/10/28 08:06:33;;;;;;;2.95;0.50;;;;;;;10.22;100.00;99897.84;4950673;28;20393;-43
2022/10/28 08:09:00;;;;;;;2.03;0.40;;;;;;;10.25;100.00;99899.88;4950574;28;20047;-49
2022/10/28 08:11:26;;;;;;;1.85;0.20;;;;;;;10.27;100.00;99896.78;4951987;28;20065;-43
2022/10/28 08:13:54;;;;;;;2.72;0.95;;;;;;;10.29;100.00;99900.78;4952401;28;20110;-44
2022/10/28 08:16:21;;;;;;;0.32;0.17;;;;;;;10.29;100.00;99906.31;4947833;28;20126;-43
2022/10/28 08:18:48;;;;;;;0.75;0.40;;;;;;;10.31;100.00;99901.22;4951889;28;20101;-45
2022/10/28 08:21:15;;;;;;;0.43;0.20;;;;;;;10.32;100.00;99911.13;4950587;28;20047;-44
2022/10/28 08:23:45;;;;;;;1.75;0.25;;;;;;;10.33;100.00;99929.31;4950268;28;20051;-44
2022/10/28 08:26:14;;;;;;;1.08;0.20;;;;;;;10.37;100.00;99924.66;4950521;29;20039;-43
2022/10/28 08:28:41;;;;;;;2.05;0.40;;;;;;;10.38;100.00;99926.25;4950597;28;20049;-43
2022/10/28 08:31:11;;;;;;;1.25;0.25;;;;;;;10.43;100.00;99933.47;4950173;28;20512;-45
2022/10/28 08:33:41;;;;;;;2.25;0.30;;;;;;;10.48;100.00;99929.63;4949373;28;20106;-44
2022/10/28 08:36:10;;;;;;;3.83;0.43;;;;;;;10.53;100.00;99937.63;4948981;28;20043;-43
2022/10/28 08:38:37;;;;;;;0.80;0.20;;;;;;;10.58;100.00;99943.66;4949392;28;20047;-44
2022/10/28 08:41:28;;;;;;;2.13;0.50;;;;;;;10.66;100.00;99947.38;4962303;28;20059;-44
2022/10/28 08:44:19;;;;;;;3.70;0.30;;;;;;;10.72;100.00;99954.22;4940027;29;20053;-43
2022/10/28 08:46:52;;;;;;;1.77;0.30;;;;;;;10.76;100.00;99961.44;4949494;28;20489;-44
2022/10/28 08:49:22;;;;;;;2.63;0.30;;;;;;;10.83;100.00;99964.34;4961196;28;20401;-44
2022/10/28 08:52:01;;;;;;;3.95;0.60;;;;;;;10.86;100.00;99969.13;4961609;28;20055;-42
2022/10/28 08:54:46;;;;;;;0.75;0.10;;;;;;;10.92;100.00;99976.00;4950125;28;20058;-44
2022/10/28 08:57:19;;;;;;;1.17;0.80;;;;;;;10.98;100.00;99971.78;4949077;29;20548;-43
2022/10/28 08:59:50;;;;;;;0.88;0.55;;;;;;;11.04;100.00;99972.25;4950512;28;20055;-43
2022/10/28 09:02:24;;;;;;;2.65;0.40;;;;;;;11.12;100.00;99975.97;4951026;28;20441;-42
2022/10/28 09:04:58;;;;;;;1.70;1.45;;;;;;;11.18;100.00;99986.38;4949711;28;20175;-44
2022/10/28 09:07:25;;;;;;;2.03;0.50;;;;;;;11.21;100.00;99991.19;4947828;28;20493;-44
2022/10/28 09:09:54;;;;;;;3.65;0.65;;;;;;;11.28;100.00;99980.22;4948146;28;20047;-44
2022/10/28 09:12:24;;;;;;;2.13;0.35;;;;;;;11.34;100.00;99989.84;4949569;28;20481;-45
2022/10/28 09:15:08;;;;;;;4.60;0.70;;;;;;;11.40;100.00;99999.47;4936618;29;20136;-44
2022/10/28 09:17:44;;;;;;;1.98;0.45;;;;;;;11.44;100.00;100010.59;4944730;28;20398;-50
2022/10/28 09:20:18;;;;;;;6.95;0.73;;;;;;;11.48;100.00;100012.28;4950137;28;20062;-44
2022/10/28 09:22:58;;;;;;;2.88;0.70;;;;;;;11.52;100.00;100007.59;4949573;28;20047;-44
2022/10/28 09:25:52;;;;;;;5.13;0.60;;;;;;;11.59;100.00;100018.00;4948099;28;20512;-45
2022/10/28 09:28:38;;;;;;;2.80;0.60;;;;;;;11.63;100.00;100011.34;4949954;28;20162;-44
2022/10/28 09:31:18;;;;;;;3.85;0.50;;;;;;;11.68;100.00;100003.88;4949358;28;20470;-44
2022/10/28 09:33:57;;;;;;;4.30;0.80;;;;;;;11.72;100.00;100010.31;4939894;29;20043;-44
2022/10/28 09:36:33;;;;;;;4.38;1.33;;;;;;;11.75;100.00;100010.41;4947978;29;20046;-44
2022/10/28 09:39:02;;;;;;;6.53;0.68;;;;;;;11.78;100.00;100009.63;4948160;28;20375;-44
2022/10/28 09:41:41;;;;;;;4.45;0.77;;;;;;;11.84;100.00;100021.22;4949150;28;20057;-45
2022/10/28 09:44:25;;;;;;;8.63;0.70;;;;;;;11.88;100.00;100033.19;4948749;28;20397;-44
2022/10/28 09:46:59;;;;;;;7.40;0.70;;;;;;;11.93;100.00;100049.50;4947255;29;20035;-45
2022/10/28 09:49:35;;;;;;;7.10;1.05;;;;;;;11.96;100.00;100035.72;4948324;28;20063;-43
2022/10/28 09:52:08;;;;;;;3.75;0.80;;;;;;;11.99;100.00;100042.50;4948997;28;20078;-43
2022/10/28 09:54:45;;;;;;;4.63;0.80;;;;;;;12.03;100.00;100049.69;4949134;28;20074;-45
2022/10/28 09:57:11;;;;;;;4.25;0.60;;;;;;;12.07;99.91;100050.53;4950173;28;20386;-46
2022/10/28 09:59:43;;;;;;;5.53;0.65;;;;;;;12.11;99.64;100045.03;4950182;28;20055;-44
2022/10/28 10:02:34;;;;;;;6.70;1.00;;;;;;;12.17;99.19;100054.66;4953337;28;20410;-43
2022/10/28 10:05:02;;;;;;;3.08;0.90;;;;;;;12.22;99.28;100054.34;4955736;28;20047;-44
2022/10/28 10:07:38;;;;;;;3.38;1.63;;;;;;;12.27;99.25;100059.56;4954166;28;20050;-44
2022/10/28 10:10:14;;;;;;;7.22;0.80;;;;;;;12.30;98.80;100063.59;4953128;29;20054;-44
2022/10/28 10:12:42;;;;;;;5.55;0.93;;;;;;;12.36;98.54;100073.19;4952057;29;20051;-43
2022/10/28 10:15:25;;;;;;;6.43;0.95;;;;;;;12.40;98.35;100080.41;4951291;28;20039;-44
2022/10/28 10:17:58;;;;;;;4.40;0.70;;;;;;;12.46;97.86;100070.59;4949353;29;20098;-51
2022/10/28 10:20:24;;;;;;;;;;;;;;;12.50;97.57;100079.75;4950246;29;20054;-44
2022/10/28 10:22:51;;;;;;;3.88;1.05;;;;;;;12.55;97.49;100082.19;4950171;28;19923;-44
2022/10/28 10:25:18;;;;;;;4.05;0.73;;;;;;;12.58;97.31;100075.91;4951835;28;20508;-44
2022/10/28 10:28:13;;;;;;;7.05;0.80;;;;;;;12.64;97.01;100082.75;4953046;28;20509;-44
2022/10/28 10:30:52;;;;;;;2.83;0.90;;;;;;;12.69;96.81;100087.16;4951937;28;20047;-44
2022/10/28 10:33:32;;;;;;;5.82;1.08;;;;;;;12.74;96.68;100090.41;4952430;28;20047;-44
2022/10/28 10:36:06;;;;;;;6.35;0.60;;;;;;;12.78;96.69;100088.50;4953929;28;20058;-45
2022/10/28 10:38:34;;;;;;;7.75;1.35;;;;;;;12.80;96.61;100077.81;4963930;28;20051;-55
2022/10/28 10:41:01;;;;;;;11.57;0.88;;;;;;;12.84;96.71;100081.44;4951014;28;20043;-48
2022/10/28 10:43:35;;;;;;;7.63;1.05;;;;;;;12.91;96.44;100088.25;4952283;28;20047;-45
2022/10/28 10:46:14;;;;;;;6.90;1.17;;;;;;;12.96;96.05;100085.16;4952083;29;20047;-44
2022/10/28 10:48:41;;;;;;;8.80;1.15;;;;;;;12.99;96.20;100090.78;4949398;28;20058;-45
2022/10/28 10:51:22;;;;;;;7.43;0.77;;;;;;;13.03;95.91;100096.34;4950750;28;20404;-45
2022/10/28 10:53:53;;;;;;;5.28;1.17;;;;;;;13.06;95.59;100096.41;4947190;28;20595;-44
2022/10/28 10:56:31;;;;;;;8.45;1.45;;;;;;;13.09;95.57;100104.03;4947621;29;20058;-45
2022/10/28 10:59:19;;;;;;;6.57;0.80;;;;;;;13.12;95.39;100099.69;4944665;29;20743;-44
2022/10/28 11:01:46;;;;;;;8.52;1.75;;;;;;;13.18;95.36;100110.09;4941974;29;20059;-45
2022/10/28 11:04:20;;;;;;;4.00;1.02;;;;;;;13.25;95.26;100115.75;4950967;28;20509;-45
2022/10/28 11:06:53;;;;;;;7.40;2.25;;;;;;;13.33;95.07;100122.19;4951411;28;20058;-45
2022/10/28 11:09:34;;;;;;;3.65;0.80;;;;;;;13.41;94.70;100112.75;4941260;29;20135;-45
2022/10/28 11:12:15;;;;;;;9.43;1.30;;;;;;;13.47;94.42;100125.16;4948182;28;20062;-48
2022/10/28 11:15:18;;;;;;;6.83;1.20;;;;;;;13.53;93.79;100131.97;4952373;29;20047;-43
2022/10/28 11:17:59;;;;;;;5.88;0.98;;;;;;;13.57;93.37;100137.56;4949505;29;20525;-44
2022/10/28 11:20:45;;;;;;;12.48;1.23;;;;;;;13.59;93.09;100136.00;4950776;28;20130;-47
2022/10/28 11:23:51;;;;;;;5.97;1.30;;;;;;;13.65;93.14;100136.47;4949603;29;20132;-44
2022/10/28 11:26:21;;;;;;;6.38;1.90;;;;;;;13.69;93.00;100143.66;4951207;29;20049;-46
2022/10/28 11:29:09;;;;;;;8.15;1.17;;;;;;;13.75;92.77;100144.94;4951012;28;20071;-44
2022/10/28 11:31:58;;;;;;;6.65;1.13;;;;;;;13.82;92.56;100149.78;4950509;28;20074;-43
2022/10/28 11:34:43;;;;;;;7.50;1.70;;;;;;;13.90;92.49;100166.16;4950512;28;20511;-44
2022/10/28 11:37:31;;;;;;;9.35;0.98;;;;;;;13.97;92.09;100160.69;4966400;28;20051;-44
2022/10/28 11:40:26;;;;;;;10.40;2.25;;;;;;;14.01;92.03;100161.50;4948877;28;20062;-52
2022/10/28 11:43:12;;;;;;;7.45;1.58;;;;;;;14.03;91.83;100156.34;4951510;29;20413;-45